Accueil
METAR-TAF:

METAR-TAF

Aéroports :

Mardin, Turquie

latitude: 37-13-58N, longitude: 40-38-26E, altitude: 527 m

Observation

Le bulletin a été fait il y a 49 minutes, à 14:50 UTC
Vent 3 kt de est
Température 26°C
Humidité 51%
Pression 1011 hPa
Visibilité 10 km ou plus
pas de nuages en-dessous de 1500 mètres et pas de cumulonimbus.

METAR: LTCR 171450Z 10003KT CAVOK 26/15 Q1011

Heure: 18:39 (15:39 UTC)

Prévision

Le bulletin a été fait il y a 1 heure et 59 minutes, à 13:40 UTC
Prévision valable du 17 à 15 UTC au 17 à 24 UTC
Vent 2 kt de direction variable
Visibilité 10 km ou plus
pas de nuages en-dessous de 1500 mètres et pas de cumulonimbus.

TAF: LTCR 171340Z 1715/1724 VRB02KT CAVOK

Observations et prévisions météorologiques de plus de 4000 aéroports (messages METAR et TAF).

Les stations disponibles sont représentées par des disques jaunes et rouges sur la carte.

Passer la souris dessus pour voir le nom de la station.

Cliquer dessus pour voir les observations et prévisions météorologiques.

Pour changer de carte: cliquez sur les boutons verts avec une croix noire pour zoomer, sur le bouton vert avec un tiret pour effectuer un zoom arrière, ou sur les flèches vertes pour les cartes adjacentes.


METAR-TAF: